Time;durP1;ratioP1;P1;durP2;ratioP2;P2;SDS_P1;SDS_P2;PMS_P1;PMS_P2;Temp;Humidity;BMP_temperature;BMP_pressure;BME280_temperature;BME280_humidity;BME280_pressure;Samples;Min_cycle;Max_cycle;Signal;HPM_P1;HPM_P2
2023/10/30 00:01:19;;;;;;;4.47;1.60;;;12.20;99.90;;;;;;4998583;28;20029;-64
2023/10/30 00:03:44;;;;;;;3.90;2.05;;;12.20;99.90;;;;;;4998757;28;20026;-64
2023/10/30 00:06:10;;;;;;;5.80;2.25;;;12.20;99.90;;;;;;4999939;28;20094;-64
2023/10/30 00:08:35;;;;;;;5.15;1.60;;;12.30;99.90;;;;;;4999152;28;20037;-64
2023/10/30 00:11:01;;;;;;;3.85;1.30;;;12.20;99.90;;;;;;4999261;28;20042;-63
2023/10/30 00:13:26;;;;;;;9.10;1.90;;;12.10;99.90;;;;;;4999225;28;20041;-64
2023/10/30 00:15:52;;;;;;;5.90;1.65;;;12.20;99.90;;;;;;4998909;28;20041;-64
2023/10/30 00:18:18;;;;;;;8.15;1.73;;;12.10;99.90;;;;;;4998119;28;20034;-64
2023/10/30 00:20:43;;;;;;;8.55;2.72;;;12.20;99.90;;;;;;4999189;28;20073;-64
2023/10/30 00:23:09;;;;;;;6.35;2.00;;;12.20;99.90;;;;;;4998441;28;20022;-64
2023/10/30 00:25:34;;;;;;;4.47;1.60;;;12.00;99.90;;;;;;4998228;28;20029;-64
2023/10/30 00:28:00;;;;;;;5.93;2.15;;;11.90;99.90;;;;;;4997906;28;20026;-66
2023/10/30 00:30:29;;;;;;;9.18;2.92;;;11.80;99.90;;;;;;4998029;28;20165;-64
2023/10/30 00:32:54;;;;;;;7.20;3.70;;;11.80;99.90;;;;;;4997819;28;20058;-64
2023/10/30 00:35:20;;;;;;;10.60;2.58;;;11.90;99.90;;;;;;4998279;28;20045;-64
2023/10/30 00:37:46;;;;;;;8.35;2.58;;;12.00;99.90;;;;;;4998564;28;20030;-64
2023/10/30 00:40:12;;;;;;;5.18;2.70;;;12.20;99.90;;;;;;4997795;28;20109;-64
2023/10/30 00:42:37;;;;;;;5.93;2.13;;;12.30;99.90;;;;;;4997793;28;20033;-64
2023/10/30 00:45:06;;;;;;;5.05;2.60;;;12.30;99.90;;;;;;4997973;28;20026;-64
2023/10/30 00:47:34;;;;;;;6.03;2.70;;;12.30;99.90;;;;;;4997700;28;20027;-64
2023/10/30 00:50:00;;;;;;;9.98;3.33;;;12.20;99.90;;;;;;4997661;28;20022;-64
2023/10/30 00:52:25;;;;;;;2.97;1.90;;;12.20;99.90;;;;;;4998069;28;20025;-64
2023/10/30 00:54:53;;;;;;;7.75;2.17;;;12.30;99.90;;;;;;4998631;28;20033;-64
2023/10/30 00:57:19;;;;;;;3.10;1.92;;;12.30;99.90;;;;;;4997815;28;20029;-64
2023/10/30 00:59:44;;;;;;;5.68;2.22;;;12.40;99.90;;;;;;4997289;28;20030;-64
2023/10/30 01:02:10;;;;;;;7.57;2.55;;;12.40;99.90;;;;;;4997506;28;20018;-64
2023/10/30 01:04:36;;;;;;;8.07;2.20;;;12.40;99.90;;;;;;4997686;28;20022;-64
2023/10/30 01:07:02;;;;;;;5.00;1.67;;;12.30;99.90;;;;;;4997683;28;20084;-64
2023/10/30 01:09:28;;;;;;;5.90;1.92;;;12.40;99.90;;;;;;4997678;28;20128;-64
2023/10/30 01:11:53;;;;;;;5.63;3.00;;;12.40;99.90;;;;;;4997304;28;20061;-64
2023/10/30 01:14:19;;;;;;;5.15;2.60;;;12.40;99.90;;;;;;4997525;28;20026;-64
2023/10/30 01:16:44;;;;;;;4.63;1.90;;;12.40;99.90;;;;;;4997433;28;20061;-64
2023/10/30 01:19:10;;;;;;;7.53;2.63;;;12.40;99.90;;;;;;4997624;28;20022;-64
2023/10/30 01:21:37;;;;;;;6.97;2.08;;;12.40;99.90;;;;;;4998128;28;20030;-64
2023/10/30 01:24:02;;;;;;;6.85;1.90;;;12.40;99.90;;;;;;4997903;28;20023;-64
2023/10/30 01:26:28;;;;;;;6.07;2.72;;;12.40;99.90;;;;;;4996343;28;20033;-64
2023/10/30 01:28:53;;;;;;;3.80;1.80;;;12.40;99.90;;;;;;4997633;28;20109;-64
2023/10/30 01:31:21;;;;;;;2.33;1.45;;;12.40;99.90;;;;;;4997275;28;20031;-63
2023/10/30 01:33:46;;;;;;;3.85;1.65;;;12.50;99.90;;;;;;4997260;28;20033;-64
2023/10/30 01:36:12;;;;;;;6.05;2.53;;;12.50;99.90;;;;;;4997222;28;20026;-64
2023/10/30 01:38:38;;;;;;;3.92;1.90;;;12.50;99.90;;;;;;4997145;28;20061;-64
2023/10/30 01:41:05;;;;;;;4.65;2.10;;;12.40;99.90;;;;;;4997686;28;20019;-64
2023/10/30 01:43:34;;;;;;;3.72;1.70;;;12.50;99.90;;;;;;4997672;28;20076;-64
2023/10/30 01:46:00;;;;;;;8.65;2.00;;;12.50;99.90;;;;;;4997109;28;20022;-64
2023/10/30 01:48:29;;;;;;;4.80;1.70;;;12.50;99.90;;;;;;4997460;28;20033;-64
2023/10/30 01:50:55;;;;;;;8.18;2.13;;;12.40;99.90;;;;;;4996987;28;20025;-64
2023/10/30 01:53:22;;;;;;;4.43;1.98;;;12.40;99.90;;;;;;4996647;28;20109;-64
2023/10/30 01:55:49;;;;;;;7.72;2.20;;;12.40;99.90;;;;;;4997530;28;20098;-63
2023/10/30 01:58:16;;;;;;;8.35;3.55;;;12.40;99.90;;;;;;4996925;28;20039;-63
2023/10/30 02:00:43;;;;;;;7.55;2.50;;;12.30;99.90;;;;;;4996929;28;20022;-64
2023/10/30 02:03:08;;;;;;;6.35;2.67;;;12.40;99.90;;;;;;4997206;28;20030;-64
2023/10/30 02:05:34;;;;;;;6.38;2.80;;;12.40;99.90;;;;;;4997093;28;20117;-64
2023/10/30 02:08:00;;;;;;;8.57;2.88;;;12.40;99.90;;;;;;4996577;28;20089;-64
2023/10/30 02:10:26;;;;;;;7.75;3.40;;;12.50;99.90;;;;;;4997641;28;20030;-64
2023/10/30 02:12:52;;;;;;;10.85;3.58;;;12.50;99.90;;;;;;4997055;28;20146;-64
2023/10/30 02:15:17;;;;;;;7.15;3.90;;;12.40;99.90;;;;;;4996495;28;20037;-64
2023/10/30 02:17:44;;;;;;;8.55;3.63;;;12.50;99.90;;;;;;4996540;28;20050;-64
2023/10/30 02:20:13;;;;;;;10.50;4.20;;;12.50;99.90;;;;;;4997403;28;20042;-64
2023/10/30 02:22:39;;;;;;;7.55;3.58;;;12.50;99.90;;;;;;4997178;28;20081;-64
2023/10/30 02:25:08;;;;;;;9.05;4.28;;;12.50;99.90;;;;;;4996634;28;20026;-64
2023/10/30 02:27:33;;;;;;;11.05;4.25;;;12.50;99.90;;;;;;4996335;28;20053;-64
2023/10/30 02:29:59;;;;;;;6.25;3.75;;;12.50;99.90;;;;;;4996782;28;20022;-64
2023/10/30 02:32:24;;;;;;;10.48;4.40;;;12.50;99.90;;;;;;4997160;28;20086;-64
2023/10/30 02:34:50;;;;;;;7.60;3.88;;;12.50;99.90;;;;;;4996723;28;20107;-64
2023/10/30 02:37:15;;;;;;;7.78;4.05;;;12.50;99.90;;;;;;4997031;28;20018;-64
2023/10/30 02:39:41;;;;;;;4.82;3.83;;;12.60;99.90;;;;;;5000120;28;20057;-63
2023/10/30 02:42:08;;;;;;;7.93;4.07;;;12.60;99.90;;;;;;4999941;28;20014;-64
2023/10/30 02:44:34;;;;;;;7.03;3.83;;;12.50;99.90;;;;;;4999983;28;20072;-64
2023/10/30 02:47:00;;;;;;;7.28;3.90;;;12.60;99.90;;;;;;4999948;28;20026;-64
2023/10/30 02:49:25;;;;;;;7.32;3.83;;;12.60;99.90;;;;;;5000157;28;20030;-64
2023/10/30 02:51:52;;;;;;;8.73;4.47;;;12.50;99.90;;;;;;4999861;28;20027;-64
2023/10/30 02:54:17;;;;;;;8.20;4.45;;;12.50;99.90;;;;;;4999769;28;20033;-64
2023/10/30 02:56:43;;;;;;;6.18;3.38;;;12.50;99.90;;;;;;5000623;28;20026;-64
2023/10/30 02:59:08;;;;;;;11.93;4.40;;;12.60;99.90;;;;;;4999604;28;20050;-64
2023/10/30 03:01:34;;;;;;;9.07;4.97;;;12.50;99.90;;;;;;5000539;28;20050;-64
2023/10/30 03:04:03;;;;;;;6.25;3.80;;;12.50;99.90;;;;;;5000520;28;20025;-64
2023/10/30 03:06:28;;;;;;;15.55;4.53;;;12.50;99.90;;;;;;4999812;28;20117;-63
2023/10/30 03:08:54;;;;;;;7.45;3.22;;;12.50;99.90;;;;;;4999815;28;20057;-64
2023/10/30 03:11:20;;;;;;;7.38;3.60;;;12.60;99.90;;;;;;4999765;28;20033;-64
2023/10/30 03:13:45;;;;;;;8.02;3.78;;;12.60;99.90;;;;;;4999747;28;20109;-64
2023/10/30 03:16:11;;;;;;;8.80;3.80;;;12.60;99.90;;;;;;5000250;28;20073;-64
2023/10/30 03:18:37;;;;;;;10.50;3.67;;;12.60;99.90;;;;;;4999254;28;20026;-64
2023/10/30 03:21:04;;;;;;;7.57;3.75;;;12.60;99.90;;;;;;4999405;28;20026;-64
2023/10/30 03:23:29;;;;;;;7.82;4.05;;;12.60;99.90;;;;;;4999870;28;20105;-64
2023/10/30 03:25:55;;;;;;;7.63;4.18;;;12.60;99.90;;;;;;4999508;28;20122;-64
2023/10/30 03:28:20;;;;;;;10.30;3.78;;;12.70;99.90;;;;;;4999914;28;20113;-64
2023/10/30 03:30:46;;;;;;;10.75;3.97;;;12.60;99.90;;;;;;4999464;28;20052;-64
2023/10/30 03:33:11;;;;;;;7.15;3.28;;;12.60;99.90;;;;;;4999403;28;20090;-64
2023/10/30 03:35:38;;;;;;;7.95;2.83;;;12.60;99.90;;;;;;4999794;28;20026;-64
2023/10/30 03:38:04;;;;;;;5.38;2.70;;;12.60;99.90;;;;;;4999193;28;20034;-64
2023/10/30 03:40:30;;;;;;;3.17;2.20;;;12.60;99.90;;;;;;5000097;28;20082;-64
2023/10/30 03:42:55;;;;;;;17.15;3.58;;;12.60;99.90;;;;;;4999239;28;20025;-64
2023/10/30 03:45:21;;;;;;;3.58;2.55;;;12.60;99.90;;;;;;4999692;28;20072;-64
2023/10/30 03:47:46;;;;;;;6.07;2.67;;;12.50;99.90;;;;;;4998758;28;20031;-64
2023/10/30 03:50:13;;;;;;;6.53;2.78;;;12.50;99.90;;;;;;4998084;28;20034;-64
2023/10/30 03:52:40;;;;;;;4.97;2.25;;;12.50;99.90;;;;;;4998638;28;20026;-64
2023/10/30 03:55:06;;;;;;;10.75;2.83;;;12.60;99.90;;;;;;4998875;28;20054;-64
2023/10/30 03:57:32;;;;;;;5.95;3.00;;;12.50;99.90;;;;;;4998331;28;20057;-64
2023/10/30 03:59:57;;;;;;;7.47;3.08;;;12.40;99.90;;;;;;4998633;28;20057;-64
2023/10/30 04:02:23;;;;;;;4.50;2.85;;;12.40;99.90;;;;;;4998498;28;20113;-64
2023/10/30 04:04:49;;;;;;;8.25;3.40;;;12.30;99.90;;;;;;4999560;28;20030;-64
2023/10/30 04:07:14;;;;;;;4.15;2.47;;;12.30;99.90;;;;;;4998478;28;20053;-64
2023/10/30 04:09:40;;;;;;;9.35;2.90;;;12.20;99.90;;;;;;4998808;28;20046;-64
2023/10/30 04:12:06;;;;;;;7.32;2.63;;;12.20;99.90;;;;;;4998678;28;20026;-64
2023/10/30 04:14:31;;;;;;;7.85;2.70;;;12.20;99.90;;;;;;4998280;28;20030;-64
2023/10/30 04:16:58;;;;;;;9.73;2.47;;;12.20;99.90;;;;;;4998493;28;20050;-64
2023/10/30 04:19:24;;;;;;;9.38;2.22;;;12.20;99.90;;;;;;4998074;28;20026;-64
2023/10/30 04:21:49;;;;;;;14.88;2.63;;;12.30;99.90;;;;;;4998457;28;20022;-64
2023/10/30 04:24:15;;;;;;;15.48;2.70;;;12.40;99.90;;;;;;4998100;28;20023;-64
2023/10/30 04:26:41;;;;;;;6.55;2.40;;;12.40;99.90;;;;;;4998471;28;20029;-64
2023/10/30 04:29:06;;;;;;;5.35;2.28;;;12.40;99.90;;;;;;4998888;28;20023;-64
2023/10/30 04:31:32;;;;;;;7.50;1.95;;;12.50;99.90;;;;;;4998635;28;20029;-64
2023/10/30 04:33:58;;;;;;;5.30;1.70;;;12.50;99.90;;;;;;4998793;28;20158;-64
2023/10/30 04:36:23;;;;;;;6.50;2.45;;;12.50;99.90;;;;;;4998844;28;20090;-64
2023/10/30 04:38:52;;;;;;;7.15;1.90;;;12.50;99.90;;;;;;4997982;28;20080;-64
2023/10/30 04:41:17;;;;;;;4.53;2.15;;;12.40;99.90;;;;;;4998200;28;20029;-64
2023/10/30 04:43:43;;;;;;;7.93;2.65;;;12.50;99.90;;;;;;4997687;28;20022;-64
2023/10/30 04:46:09;;;;;;;4.15;2.05;;;12.50;99.90;;;;;;4998376;28;20022;-64
2023/10/30 04:48:34;;;;;;;5.90;2.05;;;12.50;99.90;;;;;;4998220;28;20065;-64
2023/10/30 04:51:00;;;;;;;8.05;1.90;;;12.50;99.90;;;;;;4997985;28;20034;-64
2023/10/30 04:53:29;;;;;;;6.75;2.00;;;12.40;99.90;;;;;;4997689;28;20029;-64
2023/10/30 04:55:56;;;;;;;3.75;1.67;;;12.50;99.90;;;;;;4997930;28;20049;-64
2023/10/30 05:00:50;;;;;;;8.90;1.90;;;12.40;99.90;;;;;;5016550;28;20038;-65
2023/10/30 05:03:16;;;;;;;5.68;1.60;;;12.40;99.90;;;;;;5017305;28;20029;-65
2023/10/30 05:05:41;;;;;;;5.13;1.67;;;12.30;99.90;;;;;;5017292;28;20029;-70
2023/10/30 05:08:07;;;;;;;4.25;1.73;;;12.40;99.90;;;;;;5018109;28;20026;-66
2023/10/30 05:10:32;;;;;;;9.70;3.03;;;12.40;99.90;;;;;;5035863;28;20036;-65
2023/10/30 05:12:58;;;;;;;5.47;1.85;;;12.40;99.90;;;;;;5037492;28;20127;-65
2023/10/30 05:15:24;;;;;;;4.60;1.58;;;12.40;99.90;;;;;;5036553;28;20017;-71
2023/10/30 05:17:49;;;;;;;6.35;1.95;;;12.40;99.90;;;;;;5037431;28;20025;-71
2023/10/30 05:20:15;;;;;;;6.20;1.92;;;12.40;99.90;;;;;;5037742;28;20077;-65
2023/10/30 05:22:43;;;;;;;4.68;1.67;;;12.50;99.90;;;;;;5037680;28;20099;-65
2023/10/30 05:25:08;;;;;;;3.33;1.60;;;12.60;99.90;;;;;;5053044;28;20025;-65
2023/10/30 05:27:34;;;;;;;7.05;2.22;;;12.60;99.90;;;;;;5036460;28;20031;-65
2023/10/30 05:30:00;;;;;;;5.47;2.45;;;12.50;99.90;;;;;;5053316;28;20022;-65
2023/10/30 05:32:26;;;;;;;6.55;2.35;;;12.40;99.90;;;;;;5052935;28;20112;-65
2023/10/30 05:34:52;;;;;;;4.82;2.28;;;12.40;99.90;;;;;;5037210;28;20068;-65
2023/10/30 05:37:19;;;;;;;3.33;2.53;;;12.40;99.90;;;;;;5037195;28;20061;-70
2023/10/30 05:39:44;;;;;;;9.10;3.58;;;12.50;99.90;;;;;;5052711;28;20029;-70
2023/10/30 05:42:10;;;;;;;8.73;3.28;;;12.40;99.90;;;;;;5037267;28;20028;-70
2023/10/30 05:44:36;;;;;;;5.50;3.00;;;12.30;99.90;;;;;;5036182;28;20018;-70
2023/10/30 05:47:02;;;;;;;5.28;2.90;;;12.30;99.90;;;;;;5053104;28;20025;-70
2023/10/30 05:49:28;;;;;;;5.93;3.05;;;12.40;99.90;;;;;;5037028;28;20030;-70
2023/10/30 05:51:54;;;;;;;9.90;3.45;;;12.50;99.90;;;;;;5036965;28;20056;-70
2023/10/30 05:54:20;;;;;;;4.70;2.92;;;12.50;99.90;;;;;;5053613;28;20080;-65
2023/10/30 05:56:45;;;;;;;9.38;3.33;;;12.50;99.90;;;;;;5036778;28;20029;-65
2023/10/30 05:59:11;;;;;;;9.48;3.67;;;12.60;99.90;;;;;;5052461;28;20036;-70
2023/10/30 06:01:37;;;;;;;8.93;3.30;;;12.50;99.90;;;;;;5052984;28;20021;-71
2023/10/30 06:04:02;;;;;;;8.07;2.95;;;12.50;99.90;;;;;;5053406;28;20030;-65
2023/10/30 06:06:28;;;;;;;6.28;2.75;;;12.50;99.90;;;;;;5037273;28;20036;-72
2023/10/30 06:08:54;;;;;;;5.68;3.00;;;12.50;99.90;;;;;;5036686;28;20036;-70
2023/10/30 06:11:20;;;;;;;9.27;3.28;;;12.50;99.90;;;;;;5035987;28;20029;-70
2023/10/30 06:13:46;;;;;;;11.68;4.45;;;12.50;99.90;;;;;;5055862;28;20036;-70
2023/10/30 06:16:16;;;;;;;6.30;3.15;;;12.50;99.90;;;;;;5039954;28;20029;-70
2023/10/30 06:18:42;;;;;;;9.68;3.47;;;12.50;99.90;;;;;;5040685;28;20096;-70
2023/10/30 06:21:10;;;;;;;3.35;2.70;;;12.40;99.90;;;;;;5040152;28;20088;-65
2023/10/30 06:23:36;;;;;;;7.38;2.97;;;12.40;99.90;;;;;;5040995;28;20044;-70
2023/10/30 06:26:08;;;;;;;11.32;3.72;;;12.40;99.90;;;;;;5040752;28;20025;-71
2023/10/30 06:28:34;;;;;;;9.55;3.50;;;12.50;99.90;;;;;;5040702;28;20108;-71
2023/10/30 06:30:59;;;;;;;9.88;3.55;;;12.40;99.90;;;;;;5040847;28;20057;-70
2023/10/30 06:33:25;;;;;;;9.07;4.50;;;12.40;99.90;;;;;;5056355;28;20026;-72
2023/10/30 06:36:00;;;;;;;7.28;3.80;;;12.40;99.90;;;;;;5039920;28;20079;-70
2023/10/30 06:38:25;;;;;;;10.52;4.65;;;12.20;99.90;;;;;;5040277;28;20113;-70
2023/10/30 06:40:51;;;;;;;6.25;3.42;;;12.20;99.90;;;;;;5040315;28;20116;-72
2023/10/30 06:43:16;;;;;;;9.48;3.97;;;12.30;99.90;;;;;;5056296;28;20101;-70
2023/10/30 06:45:42;;;;;;;6.80;3.47;;;12.10;99.90;;;;;;5040223;28;20025;-70
2023/10/30 06:48:07;;;;;;;4.90;2.75;;;12.10;99.90;;;;;;5040433;28;20029;-70
2023/10/30 06:50:33;;;;;;;11.68;3.67;;;12.00;99.90;;;;;;5040131;28;20021;-65
2023/10/30 06:52:58;;;;;;;10.00;4.20;;;12.00;99.90;;;;;;5039626;28;20029;-65
2023/10/30 06:55:24;;;;;;;7.43;3.45;;;12.00;99.90;;;;;;5056128;28;20025;-65
2023/10/30 06:57:49;;;;;;;10.23;4.15;;;12.00;99.90;;;;;;5055629;28;20030;-65
2023/10/30 07:00:18;;;;;;;6.55;3.63;;;12.00;99.90;;;;;;5039872;28;20080;-65
2023/10/30 07:02:44;;;;;;;11.70;4.47;;;12.00;99.90;;;;;;5040192;28;20148;-65
2023/10/30 07:05:10;;;;;;;10.40;4.50;;;12.00;99.90;;;;;;5039010;28;20083;-67
2023/10/30 07:07:36;;;;;;;6.60;3.22;;;12.00;99.90;;;;;;5039057;28;20022;-70
2023/10/30 07:10:02;;;;;;;8.02;3.17;;;11.90;99.90;;;;;;5040136;28;20029;-70
2023/10/30 07:12:28;;;;;;;7.20;2.65;;;11.90;99.90;;;;;;5039829;28;20060;-70
2023/10/30 07:14:53;;;;;;;4.07;2.92;;;12.00;99.90;;;;;;5039800;28;20088;-70
2023/10/30 07:17:19;;;;;;;6.53;2.92;;;11.90;99.90;;;;;;5039815;28;20081;-70
2023/10/30 07:19:46;;;;;;;15.38;3.03;;;11.80;99.90;;;;;;5055704;28;20033;-70
2023/10/30 07:22:12;;;;;;;9.20;3.80;;;11.70;99.90;;;;;;5040125;28;20160;-70
2023/10/30 07:24:37;;;;;;;7.65;3.20;;;11.70;99.90;;;;;;5054194;28;20104;-70
2023/10/30 07:27:03;;;;;;;11.02;4.45;;;11.60;99.90;;;;;;5038982;28;20044;-70
2023/10/30 07:29:29;;;;;;;9.57;3.30;;;11.40;99.90;;;;;;5055100;28;20108;-70
2023/10/30 07:31:55;;;;;;;15.40;4.25;;;11.50;99.90;;;;;;5055200;28;20033;-70
2023/10/30 07:34:21;;;;;;;10.38;3.72;;;11.60;99.90;;;;;;5039672;28;20100;-70
2023/10/30 07:36:47;;;;;;;11.20;3.80;;;11.70;99.90;;;;;;5039338;28;20049;-70
2023/10/30 07:39:14;;;;;;;11.10;4.22;;;11.70;99.90;;;;;;5055016;28;20045;-70
2023/10/30 07:41:39;;;;;;;7.68;3.40;;;11.50;99.90;;;;;;5039366;28;20017;-70
2023/10/30 07:44:07;;;;;;;13.02;5.47;;;11.50;99.90;;;;;;5039283;28;20032;-71
2023/10/30 07:46:32;;;;;;;6.47;3.55;;;11.50;99.90;;;;;;5038563;28;20026;-71
2023/10/30 07:49:01;;;;;;;9.68;4.82;;;11.60;99.90;;;;;;5038090;28;20060;-70
2023/10/30 07:51:27;;;;;;;13.15;5.03;;;11.70;99.90;;;;;;5039143;28;20079;-70
2023/10/30 07:53:52;;;;;;;14.40;5.03;;;11.60;99.90;;;;;;5038590;28;20022;-70
2023/10/30 07:56:18;;;;;;;8.60;5.18;;;11.40;99.90;;;;;;5055431;28;20026;-71
2023/10/30 07:58:44;;;;;;;9.32;4.78;;;11.50;99.90;;;;;;5038705;28;20029;-70
2023/10/30 08:01:10;;;;;;;8.45;4.50;;;11.40;99.90;;;;;;5038942;28;20097;-70
2023/10/30 08:03:36;;;;;;;7.18;4.20;;;11.30;99.90;;;;;;5038873;28;20030;-71
2023/10/30 08:06:01;;;;;;;8.25;3.50;;;11.40;99.90;;;;;;5039157;28;20026;-70
2023/10/30 08:08:28;;;;;;;7.18;3.08;;;11.50;99.90;;;;;;5039062;28;20025;-70
2023/10/30 08:10:54;;;;;;;4.85;3.30;;;11.50;99.90;;;;;;5038963;28;20076;-70
2023/10/30 08:13:20;;;;;;;8.77;4.07;;;11.60;99.90;;;;;;5039157;28;20025;-70
2023/10/30 08:15:46;;;;;;;10.82;3.83;;;11.70;99.90;;;;;;5039007;28;20025;-70
2023/10/30 08:18:12;;;;;;;7.15;3.80;;;11.70;99.90;;;;;;5037581;28;20021;-71
2023/10/30 08:20:37;;;;;;;8.10;4.10;;;11.80;99.90;;;;;;5054192;28;20028;-70
2023/10/30 08:23:03;;;;;;;7.90;4.05;;;11.80;99.90;;;;;;5038575;28;20040;-70
2023/10/30 08:25:28;;;;;;;8.60;4.07;;;11.80;99.90;;;;;;5054442;28;20075;-69
2023/10/30 08:27:57;;;;;;;9.10;4.68;;;11.80;99.90;;;;;;5037480;28;20028;-71
2023/10/30 08:30:24;;;;;;;12.15;4.82;;;11.80;99.90;;;;;;5038789;28;20022;-70
2023/10/30 08:32:50;;;;;;;13.77;4.75;;;11.70;99.90;;;;;;5038334;28;20014;-70
2023/10/30 08:35:15;;;;;;;10.05;4.20;;;11.80;99.90;;;;;;5037239;28;20124;-70
2023/10/30 08:37:41;;;;;;;13.90;4.28;;;11.80;99.90;;;;;;5038219;28;20022;-70
2023/10/30 08:40:08;;;;;;;8.77;4.20;;;11.80;99.90;;;;;;5038326;28;20072;-71
2023/10/30 08:42:34;;;;;;;6.45;4.28;;;11.80;99.90;;;;;;5053788;28;20021;-70
2023/10/30 08:44:59;;;;;;;10.57;4.93;;;11.80;99.90;;;;;;5038193;28;20029;-70
2023/10/30 08:47:25;;;;;;;17.92;5.90;;;11.80;99.90;;;;;;5053768;28;20075;-70
2023/10/30 08:49:50;;;;;;;9.93;4.85;;;11.60;99.90;;;;;;5037357;28;20041;-71
2023/10/30 08:52:16;;;;;;;9.13;4.43;;;11.60;99.90;;;;;;5038339;28;20060;-70
2023/10/30 08:54:42;;;;;;;13.23;5.18;;;11.60;99.90;;;;;;5038061;28;20032;-70
2023/10/30 08:57:08;;;;;;;9.10;4.93;;;11.60;99.90;;;;;;5038397;28;20052;-69
2023/10/30 08:59:38;;;;;;;7.63;5.05;;;11.50;99.90;;;;;;5053306;28;20060;-69
2023/10/30 09:02:05;;;;;;;10.20;5.00;;;11.70;99.90;;;;;;5053583;28;20029;-69
2023/10/30 09:04:31;;;;;;;13.35;5.80;;;11.80;99.90;;;;;;5053805;28;20075;-69
2023/10/30 09:06:57;;;;;;;12.35;7.20;;;11.90;99.90;;;;;;5037617;28;20021;-70
2023/10/30 09:09:23;;;;;;;15.93;7.32;;;11.90;99.90;;;;;;5036086;28;20037;-70
2023/10/30 09:11:49;;;;;;;9.68;5.47;;;11.90;99.90;;;;;;5030440;28;20022;-70
2023/10/30 09:14:14;;;;;;;11.95;6.25;;;11.90;99.90;;;;;;5017027;28;20033;-70
2023/10/30 09:16:40;;;;;;;15.25;6.10;;;11.80;99.90;;;;;;5032690;28;20029;-70
2023/10/30 09:19:06;;;;;;;11.98;5.90;;;11.80;99.90;;;;;;5036444;28;20112;-70
2023/10/30 09:21:31;;;;;;;13.85;5.65;;;11.90;99.90;;;;;;5037114;28;20025;-69
2023/10/30 09:23:57;;;;;;;13.90;6.32;;;11.90;99.90;;;;;;5037888;28;20053;-69
2023/10/30 09:26:22;;;;;;;8.85;6.07;;;11.80;99.90;;;;;;5036985;28;20030;-69
2023/10/30 09:28:48;;;;;;;9.20;5.75;;;11.90;99.90;;;;;;5024012;28;20022;-70
2023/10/30 09:31:14;;;;;;;12.48;6.03;;;12.00;99.90;;;;;;5017291;28;20025;-70
2023/10/30 09:33:39;;;;;;;8.68;5.30;;;11.90;99.90;;;;;;5016751;28;20033;-70
2023/10/30 09:36:06;;;;;;;12.43;6.70;;;11.90;99.90;;;;;;5016631;28;20033;-70
2023/10/30 09:38:31;;;;;;;14.43;6.43;;;11.80;99.90;;;;;;5016451;28;20026;-69
2023/10/30 09:41:01;;;;;;;12.82;6.10;;;11.80;99.90;;;;;;5016839;28;20068;-69
2023/10/30 09:43:30;;;;;;;13.20;6.07;;;11.80;99.90;;;;;;5016472;28;20022;-69
2023/10/30 09:46:00;;;;;;;12.73;5.93;;;11.80;99.90;;;;;;5016499;28;20026;-70
2023/10/30 09:48:28;;;;;;;17.67;6.72;;;11.90;99.90;;;;;;5016451;28;20030;-70
2023/10/30 09:50:54;;;;;;;8.20;5.40;;;12.00;99.90;;;;;;5035222;28;20107;-69
2023/10/30 09:53:20;;;;;;;11.93;5.78;;;12.00;99.90;;;;;;5037033;28;20032;-69
2023/10/30 09:55:48;;;;;;;9.80;5.50;;;12.10;99.90;;;;;;5037302;28;20025;-70
2023/10/30 09:58:15;;;;;;;8.27;5.70;;;12.20;99.90;;;;;;5036084;28;20033;-69
2023/10/30 10:00:44;;;;;;;8.00;4.80;;;12.10;99.90;;;;;;5035920;28;20116;-69
2023/10/30 10:03:10;;;;;;;10.23;5.60;;;12.10;99.90;;;;;;5036046;28;20025;-72
2023/10/30 10:05:35;;;;;;;15.10;6.28;;;12.00;99.90;;;;;;5021448;28;20026;-71
2023/10/30 10:08:01;;;;;;;16.27;7.18;;;12.10;99.90;;;;;;5035096;28;20021;-71
2023/10/30 10:11:05;;;;;;;16.90;7.40;;;12.30;99.90;;;;;;5036846;28;20027;-71
2023/10/30 10:13:33;;;;;;;12.80;6.75;;;12.40;99.90;;;;;;5036884;28;20041;-70
2023/10/30 10:16:00;;;;;;;13.05;6.72;;;12.40;99.90;;;;;;5036669;28;20028;-70
2023/10/30 10:18:29;;;;;;;9.57;5.97;;;12.40;99.90;;;;;;5036626;28;20036;-71
2023/10/30 10:20:56;;;;;;;14.77;7.50;;;12.50;99.90;;;;;;5036694;28;20026;-71
2023/10/30 10:23:22;;;;;;;7.35;5.20;;;12.50;99.90;;;;;;5035489;28;20042;-71
2023/10/30 10:25:55;;;;;;;7.53;5.13;;;12.40;99.90;;;;;;5036499;28;20048;-71
2023/10/30 10:28:25;;;;;;;7.38;4.70;;;12.50;99.90;;;;;;5035913;28;20025;-71
2023/10/30 10:30:55;;;;;;;7.97;4.68;;;12.70;99.90;;;;;;5037275;28;20075;-70
2023/10/30 10:33:22;;;;;;;10.65;5.05;;;12.80;99.90;;;;;;5036565;28;20025;-70
2023/10/30 10:35:55;;;;;;;14.57;5.40;;;12.90;99.90;;;;;;5036674;28;20030;-70
2023/10/30 10:38:21;;;;;;;13.95;5.55;;;12.80;99.90;;;;;;5036674;28;20097;-70
2023/10/30 10:40:48;;;;;;;6.22;3.67;;;12.80;99.90;;;;;;5031805;28;20029;-70
2023/10/30 10:43:19;;;;;;;8.45;5.22;;;12.90;99.90;;;;;;5016001;28;20022;-71
2023/10/30 10:45:46;;;;;;;6.95;5.05;;;12.90;99.90;;;;;;5016490;28;20014;-71
2023/10/30 10:48:12;;;;;;;6.68;3.50;;;13.00;99.90;;;;;;5032465;28;20022;-70
2023/10/30 10:50:37;;;;;;;5.35;3.55;;;13.00;99.90;;;;;;5016675;28;20030;-70
2023/10/30 10:53:04;;;;;;;4.18;2.58;;;13.00;99.90;;;;;;5032327;28;20026;-70
2023/10/30 10:55:34;;;;;;;4.32;3.55;;;12.90;99.90;;;;;;5016957;28;20054;-70
2023/10/30 10:58:09;;;;;;;5.78;3.75;;;13.10;99.90;;;;;;5032964;28;20048;-70
2023/10/30 11:00:40;;;;;;;3.13;2.83;;;13.10;99.90;;;;;;5058765;22;20046;-63
2023/10/30 11:03:07;;;;;;;4.45;2.72;;;13.40;99.90;;;;;;5020360;28;20021;-63
2023/10/30 11:05:36;;;;;;;3.58;2.70;;;13.50;99.90;;;;;;5019453;28;20057;-63
2023/10/30 11:08:29;;;;;;;4.40;2.35;;;13.40;99.90;;;;;;5020313;28;20096;-63
2023/10/30 11:11:03;;;;;;;4.63;2.95;;;13.50;99.90;;;;;;5039141;28;20026;-63
2023/10/30 11:13:50;;;;;;;3.70;3.15;;;13.30;99.90;;;;;;5039035;28;20112;-64
2023/10/30 11:16:26;;;;;;;4.50;2.72;;;13.30;99.90;;;;;;5039268;28;20029;-63
2023/10/30 11:18:56;;;;;;;8.18;4.47;;;13.40;99.90;;;;;;5039890;28;20026;-63
2023/10/30 11:21:25;;;;;;;4.88;3.10;;;13.30;99.90;;;;;;5039671;28;20029;-64
2023/10/30 11:23:59;;;;;;;5.15;3.60;;;13.30;99.90;;;;;;5038831;28;20021;-63
2023/10/30 11:26:30;;;;;;;4.55;2.80;;;13.20;99.90;;;;;;5039916;28;20049;-63
2023/10/30 11:28:57;;;;;;;;;;;13.30;99.90;;;;;;5039811;28;20029;-64
2023/10/30 11:31:22;;;;;;;7.38;3.10;;;13.30;99.90;;;;;;5038579;28;19940;-63
2023/10/30 11:33:48;;;;;;;4.63;2.70;;;13.50;99.90;;;;;;5039368;28;20022;-63
2023/10/30 11:36:18;;;;;;;2.55;1.85;;;13.30;99.90;;;;;;5039641;28;20077;-63
2023/10/30 11:38:56;;;;;;;1.50;1.17;;;13.50;99.90;;;;;;5039403;28;20026;-63
2023/10/30 11:41:24;;;;;;;1.23;1.13;;;13.90;99.90;;;;;;5055283;28;20087;-63
2023/10/30 11:43:49;;;;;;;2.88;1.35;;;14.00;99.90;;;;;;5038776;28;20032;-65
2023/10/30 11:46:17;;;;;;;3.72;1.60;;;14.20;99.90;;;;;;5039170;28;20017;-63
2023/10/30 11:48:44;;;;;;;1.77;1.45;;;13.90;99.90;;;;;;5038261;28;20026;-63
2023/10/30 11:51:09;;;;;;;4.90;1.92;;;13.80;99.90;;;;;;5054943;28;20032;-63
2023/10/30 11:53:35;;;;;;;4.80;1.80;;;13.50;99.90;;;;;;5038396;28;20029;-63
2023/10/30 11:56:01;;;;;;;4.15;1.95;;;13.30;99.90;;;;;;5039156;28;20018;-63
2023/10/30 11:58:28;;;;;;;4.97;1.98;;;13.20;99.90;;;;;;5039028;28;20108;-63
2023/10/30 12:00:57;;;;;;;3.47;1.35;;;13.30;99.90;;;;;;5038803;28;20083;-62
2023/10/30 12:03:23;;;;;;;4.22;1.50;;;13.10;99.90;;;;;;5038941;28;20024;-62
2023/10/30 12:05:48;;;;;;;6.55;1.50;;;12.90;99.90;;;;;;5038831;28;20108;-62
2023/10/30 12:08:14;;;;;;;3.50;1.30;;;12.80;99.90;;;;;;5038978;28;20044;-63
2023/10/30 12:10:39;;;;;;;1.75;1.08;;;13.00;99.90;;;;;;5037621;28;20032;-63
2023/10/30 12:13:05;;;;;;;2.58;0.88;;;12.90;99.90;;;;;;5038807;28;20056;-62
2023/10/30 12:15:31;;;;;;;2.95;1.10;;;13.10;99.90;;;;;;5037645;28;20030;-62
2023/10/30 12:17:57;;;;;;;2.63;1.20;;;13.30;99.90;;;;;;5037741;28;20025;-62
2023/10/30 12:20:22;;;;;;;0.98;0.55;;;13.70;99.90;;;;;;5037687;28;20052;-63
2023/10/30 12:22:48;;;;;;;1.92;0.70;;;14.00;99.90;;;;;;5038590;28;20025;-62
2023/10/30 12:25:15;;;;;;;1.30;1.08;;;14.20;99.90;;;;;;5038701;28;20025;-62
2023/10/30 12:27:41;;;;;;;2.17;0.90;;;14.20;99.90;;;;;;5037463;28;20025;-62
2023/10/30 12:30:16;;;;;;;1.88;1.00;;;13.90;99.90;;;;;;5037452;28;20032;-62
2023/10/30 12:32:42;;;;;;;1.08;0.90;;;13.70;99.90;;;;;;5038669;28;20139;-62
2023/10/30 12:35:12;;;;;;;1.25;0.80;;;13.50;99.90;;;;;;5038241;28;20025;-62
2023/10/30 12:37:38;;;;;;;1.25;0.75;;;13.20;99.90;;;;;;5037834;28;20025;-62
2023/10/30 12:40:15;;;;;;;3.63;0.95;;;13.20;99.90;;;;;;5037035;28;20028;-63
2023/10/30 12:42:43;;;;;;;1.65;1.13;;;13.20;99.90;;;;;;5038190;28;20041;-62
2023/10/30 12:45:13;;;;;;;3.72;0.90;;;13.40;99.90;;;;;;5037253;28;20028;-62